sensor_id;sensor_type;location;lat;lon;timestamp;P1;durP1;ratioP1;P2;durP2;ratioP2
10201;SDS011;5143;42.584;23.164;2022-11-15T00:00:56;20.57;;;12.00;;
10201;SDS011;5143;42.584;23.164;2022-11-15T00:03:24;18.47;;;10.00;;
10201;SDS011;5143;42.584;23.164;2022-11-15T00:05:50;17.47;;;9.80;;
10201;SDS011;5143;42.584;23.164;2022-11-15T00:08:17;18.33;;;9.57;;
10201;SDS011;5143;42.584;23.164;2022-11-15T00:10:53;19.20;;;10.20;;
10201;SDS011;5143;42.584;23.164;2022-11-15T00:13:20;19.03;;;9.63;;
10201;SDS011;5143;42.584;23.164;2022-11-15T00:15:46;14.57;;;8.93;;
10201;SDS011;5143;42.584;23.164;2022-11-15T00:18:14;18.73;;;8.97;;
10201;SDS011;5143;42.584;23.164;2022-11-15T00:20:41;16.77;;;9.53;;
10201;SDS011;5143;42.584;23.164;2022-11-15T00:23:08;18.63;;;9.80;;
10201;SDS011;5143;42.584;23.164;2022-11-15T00:25:35;20.40;;;10.17;;
10201;SDS011;5143;42.584;23.164;2022-11-15T00:28:02;16.77;;;9.80;;
10201;SDS011;5143;42.584;23.164;2022-11-15T00:30:28;14.60;;;9.07;;
10201;SDS011;5143;42.584;23.164;2022-11-15T00:32:55;14.23;;;9.40;;
10201;SDS011;5143;42.584;23.164;2022-11-15T00:35:23;15.27;;;9.23;;
10201;SDS011;5143;42.584;23.164;2022-11-15T00:37:49;16.30;;;8.90;;
10201;SDS011;5143;42.584;23.164;2022-11-15T00:40:18;15.67;;;8.57;;
10201;SDS011;5143;42.584;23.164;2022-11-15T00:42:45;12.50;;;8.77;;
10201;SDS011;5143;42.584;23.164;2022-11-15T00:45:12;13.67;;;9.33;;
10201;SDS011;5143;42.584;23.164;2022-11-15T00:47:38;15.90;;;9.17;;
10201;SDS011;5143;42.584;23.164;2022-11-15T00:50:05;13.03;;;8.40;;
10201;SDS011;5143;42.584;23.164;2022-11-15T00:52:33;14.20;;;9.20;;
10201;SDS011;5143;42.584;23.164;2022-11-15T00:54:59;13.40;;;8.17;;
10201;SDS011;5143;42.584;23.164;2022-11-15T00:57:26;12.33;;;7.73;;
10201;SDS011;5143;42.584;23.164;2022-11-15T00:59:52;12.17;;;8.07;;
10201;SDS011;5143;42.584;23.164;2022-11-15T01:02:19;11.50;;;8.10;;
10201;SDS011;5143;42.584;23.164;2022-11-15T01:04:46;13.43;;;8.33;;
10201;SDS011;5143;42.584;23.164;2022-11-15T01:07:12;14.50;;;8.20;;
10201;SDS011;5143;42.584;23.164;2022-11-15T01:09:40;13.77;;;8.13;;
10201;SDS011;5143;42.584;23.164;2022-11-15T01:12:07;14.03;;;8.80;;
10201;SDS011;5143;42.584;23.164;2022-11-15T01:14:33;12.67;;;8.00;;
10201;SDS011;5143;42.584;23.164;2022-11-15T01:17:00;11.90;;;8.17;;
10201;SDS011;5143;42.584;23.164;2022-11-15T01:19:26;12.17;;;8.37;;
10201;SDS011;5143;42.584;23.164;2022-11-15T01:21:53;11.57;;;8.00;;
10201;SDS011;5143;42.584;23.164;2022-11-15T01:24:20;13.27;;;8.03;;
10201;SDS011;5143;42.584;23.164;2022-11-15T01:26:48;12.97;;;7.87;;
10201;SDS011;5143;42.584;23.164;2022-11-15T01:29:14;15.27;;;7.77;;
10201;SDS011;5143;42.584;23.164;2022-11-15T01:31:41;11.97;;;7.63;;
10201;SDS011;5143;42.584;23.164;2022-11-15T01:34:07;12.97;;;8.10;;
10201;SDS011;5143;42.584;23.164;2022-11-15T01:36:34;13.70;;;8.13;;
10201;SDS011;5143;42.584;23.164;2022-11-15T01:39:00;15.33;;;9.53;;
10201;SDS011;5143;42.584;23.164;2022-11-15T01:41:28;16.40;;;8.83;;
10201;SDS011;5143;42.584;23.164;2022-11-15T01:43:57;15.27;;;9.13;;
10201;SDS011;5143;42.584;23.164;2022-11-15T01:46:28;14.20;;;8.17;;
10201;SDS011;5143;42.584;23.164;2022-11-15T01:48:56;18.33;;;9.27;;
10201;SDS011;5143;42.584;23.164;2022-11-15T01:51:24;15.83;;;9.93;;
10201;SDS011;5143;42.584;23.164;2022-11-15T01:53:52;13.60;;;8.73;;
10201;SDS011;5143;42.584;23.164;2022-11-15T01:56:21;16.07;;;9.57;;
10201;SDS011;5143;42.584;23.164;2022-11-15T01:58:49;18.73;;;9.57;;
10201;SDS011;5143;42.584;23.164;2022-11-15T02:01:17;14.70;;;9.37;;
10201;SDS011;5143;42.584;23.164;2022-11-15T02:03:46;14.67;;;8.97;;
10201;SDS011;5143;42.584;23.164;2022-11-15T02:06:14;13.87;;;8.07;;
10201;SDS011;5143;42.584;23.164;2022-11-15T02:08:41;15.33;;;9.90;;
10201;SDS011;5143;42.584;23.164;2022-11-15T02:11:08;19.83;;;9.20;;
10201;SDS011;5143;42.584;23.164;2022-11-15T02:13:35;16.17;;;9.67;;
10201;SDS011;5143;42.584;23.164;2022-11-15T02:16:04;11.80;;;7.70;;
10201;SDS011;5143;42.584;23.164;2022-11-15T02:18:37;13.93;;;7.83;;
10201;SDS011;5143;42.584;23.164;2022-11-15T02:21:14;17.13;;;8.97;;
10201;SDS011;5143;42.584;23.164;2022-11-15T02:23:58;20.23;;;9.33;;
10201;SDS011;5143;42.584;23.164;2022-11-15T02:29:15;13.63;;;8.27;;
10201;SDS011;5143;42.584;23.164;2022-11-15T02:31:48;15.40;;;8.50;;
10201;SDS011;5143;42.584;23.164;2022-11-15T02:34:19;17.50;;;9.20;;
10201;SDS011;5143;42.584;23.164;2022-11-15T02:36:49;13.90;;;8.63;;
10201;SDS011;5143;42.584;23.164;2022-11-15T02:39:22;18.63;;;8.83;;
10201;SDS011;5143;42.584;23.164;2022-11-15T02:41:51;13.27;;;7.47;;
10201;SDS011;5143;42.584;23.164;2022-11-15T02:44:21;14.37;;;8.07;;
10201;SDS011;5143;42.584;23.164;2022-11-15T02:46:51;14.23;;;7.80;;
10201;SDS011;5143;42.584;23.164;2022-11-15T02:49:36;11.83;;;6.97;;
10201;SDS011;5143;42.584;23.164;2022-11-15T02:52:03;12.40;;;7.77;;
10201;SDS011;5143;42.584;23.164;2022-11-15T02:54:30;16.50;;;8.33;;
10201;SDS011;5143;42.584;23.164;2022-11-15T02:56:59;16.87;;;8.07;;
10201;SDS011;5143;42.584;23.164;2022-11-15T02:59:39;18.53;;;8.30;;
10201;SDS011;5143;42.584;23.164;2022-11-15T03:02:13;13.97;;;7.77;;
10201;SDS011;5143;42.584;23.164;2022-11-15T03:04:42;13.57;;;7.47;;
10201;SDS011;5143;42.584;23.164;2022-11-15T03:07:11;12.50;;;7.87;;
10201;SDS011;5143;42.584;23.164;2022-11-15T03:09:40;11.80;;;7.10;;
10201;SDS011;5143;42.584;23.164;2022-11-15T03:12:10;13.67;;;7.90;;
10201;SDS011;5143;42.584;23.164;2022-11-15T03:14:40;12.43;;;6.97;;
10201;SDS011;5143;42.584;23.164;2022-11-15T03:17:11;16.27;;;6.97;;
10201;SDS011;5143;42.584;23.164;2022-11-15T03:19:40;9.73;;;6.43;;
10201;SDS011;5143;42.584;23.164;2022-11-15T03:22:09;12.23;;;6.70;;
10201;SDS011;5143;42.584;23.164;2022-11-15T03:24:37;9.80;;;6.17;;
10201;SDS011;5143;42.584;23.164;2022-11-15T03:27:04;10.40;;;6.93;;
10201;SDS011;5143;42.584;23.164;2022-11-15T03:29:32;11.93;;;7.17;;
10201;SDS011;5143;42.584;23.164;2022-11-15T03:32:00;12.10;;;7.87;;
10201;SDS011;5143;42.584;23.164;2022-11-15T03:34:29;11.43;;;6.83;;
10201;SDS011;5143;42.584;23.164;2022-11-15T03:36:57;9.83;;;6.53;;
10201;SDS011;5143;42.584;23.164;2022-11-15T03:39:24;11.17;;;6.93;;
10201;SDS011;5143;42.584;23.164;2022-11-15T03:41:54;10.17;;;6.80;;
10201;SDS011;5143;42.584;23.164;2022-11-15T03:44:26;13.40;;;7.63;;
10201;SDS011;5143;42.584;23.164;2022-11-15T03:46:57;13.33;;;7.43;;
10201;SDS011;5143;42.584;23.164;2022-11-15T03:49:29;13.27;;;7.83;;
10201;SDS011;5143;42.584;23.164;2022-11-15T03:51:59;11.00;;;7.10;;
10201;SDS011;5143;42.584;23.164;2022-11-15T03:54:26;12.10;;;7.10;;
10201;SDS011;5143;42.584;23.164;2022-11-15T03:56:53;12.77;;;7.73;;
10201;SDS011;5143;42.584;23.164;2022-11-15T03:59:19;11.13;;;7.27;;
10201;SDS011;5143;42.584;23.164;2022-11-15T04:01:46;11.13;;;7.67;;
10201;SDS011;5143;42.584;23.164;2022-11-15T04:04:12;13.70;;;8.10;;
10201;SDS011;5143;42.584;23.164;2022-11-15T04:06:39;19.63;;;8.50;;
10201;SDS011;5143;42.584;23.164;2022-11-15T04:09:07;15.60;;;8.97;;
10201;SDS011;5143;42.584;23.164;2022-11-15T04:11:33;14.73;;;7.97;;
10201;SDS011;5143;42.584;23.164;2022-11-15T04:14:00;14.47;;;8.67;;
10201;SDS011;5143;42.584;23.164;2022-11-15T04:16:26;12.03;;;7.50;;
10201;SDS011;5143;42.584;23.164;2022-11-15T04:18:53;13.77;;;7.63;;
10201;SDS011;5143;42.584;23.164;2022-11-15T04:21:34;15.17;;;8.23;;
10201;SDS011;5143;42.584;23.164;2022-11-15T04:24:19;15.23;;;7.60;;
10201;SDS011;5143;42.584;23.164;2022-11-15T04:26:45;10.47;;;6.63;;
10201;SDS011;5143;42.584;23.164;2022-11-15T04:29:12;10.77;;;6.80;;
10201;SDS011;5143;42.584;23.164;2022-11-15T04:31:56;14.40;;;7.77;;
10201;SDS011;5143;42.584;23.164;2022-11-15T04:34:22;14.13;;;7.70;;
10201;SDS011;5143;42.584;23.164;2022-11-15T04:36:49;21.40;;;8.27;;
10201;SDS011;5143;42.584;23.164;2022-11-15T04:39:34;11.07;;;7.33;;
10201;SDS011;5143;42.584;23.164;2022-11-15T04:42:01;11.43;;;7.93;;
10201;SDS011;5143;42.584;23.164;2022-11-15T04:44:27;19.63;;;8.40;;
10201;SDS011;5143;42.584;23.164;2022-11-15T04:46:54;12.57;;;8.57;;
10201;SDS011;5143;42.584;23.164;2022-11-15T04:49:20;19.77;;;8.63;;
10201;SDS011;5143;42.584;23.164;2022-11-15T04:51:47;12.07;;;7.47;;
10201;SDS011;5143;42.584;23.164;2022-11-15T04:54:13;16.13;;;9.90;;
10201;SDS011;5143;42.584;23.164;2022-11-15T04:56:41;19.27;;;11.27;;
10201;SDS011;5143;42.584;23.164;2022-11-15T04:59:08;23.70;;;10.63;;
10201;SDS011;5143;42.584;23.164;2022-11-15T05:01:34;16.53;;;9.60;;
10201;SDS011;5143;42.584;23.164;2022-11-15T05:04:01;14.97;;;9.40;;
10201;SDS011;5143;42.584;23.164;2022-11-15T05:06:45;19.43;;;8.57;;
10201;SDS011;5143;42.584;23.164;2022-11-15T05:09:12;15.83;;;8.57;;
10201;SDS011;5143;42.584;23.164;2022-11-15T05:11:39;18.00;;;9.57;;
10201;SDS011;5143;42.584;23.164;2022-11-15T05:14:07;16.67;;;9.53;;
10201;SDS011;5143;42.584;23.164;2022-11-15T05:16:33;18.83;;;10.30;;
10201;SDS011;5143;42.584;23.164;2022-11-15T05:19:00;20.10;;;11.10;;
10201;SDS011;5143;42.584;23.164;2022-11-15T05:21:27;17.30;;;10.70;;
10201;SDS011;5143;42.584;23.164;2022-11-15T05:23:53;18.37;;;10.23;;
10201;SDS011;5143;42.584;23.164;2022-11-15T05:26:20;21.00;;;11.40;;
10201;SDS011;5143;42.584;23.164;2022-11-15T05:28:51;22.23;;;11.53;;
10201;SDS011;5143;42.584;23.164;2022-11-15T05:31:19;27.33;;;12.60;;
10201;SDS011;5143;42.584;23.164;2022-11-15T05:33:45;25.17;;;14.53;;
10201;SDS011;5143;42.584;23.164;2022-11-15T05:36:13;35.53;;;16.27;;
10201;SDS011;5143;42.584;23.164;2022-11-15T05:38:42;25.23;;;14.03;;
10201;SDS011;5143;42.584;23.164;2022-11-15T05:41:08;27.27;;;13.20;;
10201;SDS011;5143;42.584;23.164;2022-11-15T05:43:35;26.07;;;13.77;;
10201;SDS011;5143;42.584;23.164;2022-11-15T05:46:03;31.13;;;13.97;;
10201;SDS011;5143;42.584;23.164;2022-11-15T05:48:31;27.57;;;13.83;;
10201;SDS011;5143;42.584;23.164;2022-11-15T05:50:58;34.30;;;20.00;;
10201;SDS011;5143;42.584;23.164;2022-11-15T05:53:26;27.90;;;16.67;;
10201;SDS011;5143;42.584;23.164;2022-11-15T05:55:52;26.20;;;12.83;;
10201;SDS011;5143;42.584;23.164;2022-11-15T05:58:19;28.70;;;14.50;;
10201;SDS011;5143;42.584;23.164;2022-11-15T06:00:46;33.10;;;15.50;;
10201;SDS011;5143;42.584;23.164;2022-11-15T06:03:13;24.70;;;15.63;;
10201;SDS011;5143;42.584;23.164;2022-11-15T06:05:41;22.47;;;14.97;;
10201;SDS011;5143;42.584;23.164;2022-11-15T06:08:08;29.17;;;20.10;;
10201;SDS011;5143;42.584;23.164;2022-11-15T06:10:35;37.40;;;24.63;;
10201;SDS011;5143;42.584;23.164;2022-11-15T06:13:02;44.60;;;28.30;;
10201;SDS011;5143;42.584;23.164;2022-11-15T06:15:29;41.10;;;25.37;;
10201;SDS011;5143;42.584;23.164;2022-11-15T06:17:56;34.73;;;22.27;;
10201;SDS011;5143;42.584;23.164;2022-11-15T06:20:23;32.10;;;16.23;;
10201;SDS011;5143;42.584;23.164;2022-11-15T06:22:51;33.37;;;16.70;;
10201;SDS011;5143;42.584;23.164;2022-11-15T06:25:22;32.37;;;16.67;;
10201;SDS011;5143;42.584;23.164;2022-11-15T06:27:50;30.00;;;15.30;;
10201;SDS011;5143;42.584;23.164;2022-11-15T06:30:17;38.73;;;19.97;;
10201;SDS011;5143;42.584;23.164;2022-11-15T06:32:43;38.43;;;24.07;;
10201;SDS011;5143;42.584;23.164;2022-11-15T06:35:10;55.57;;;31.73;;
10201;SDS011;5143;42.584;23.164;2022-11-15T06:37:36;50.03;;;26.80;;
10201;SDS011;5143;42.584;23.164;2022-11-15T06:40:05;34.30;;;19.10;;
10201;SDS011;5143;42.584;23.164;2022-11-15T06:42:32;49.17;;;19.27;;
10201;SDS011;5143;42.584;23.164;2022-11-15T06:44:58;34.10;;;19.57;;
10201;SDS011;5143;42.584;23.164;2022-11-15T06:47:25;30.67;;;18.33;;
10201;SDS011;5143;42.584;23.164;2022-11-15T06:49:52;32.57;;;16.57;;
10201;SDS011;5143;42.584;23.164;2022-11-15T06:52:18;38.33;;;18.80;;
10201;SDS011;5143;42.584;23.164;2022-11-15T06:54:45;27.67;;;17.97;;
10201;SDS011;5143;42.584;23.164;2022-11-15T06:57:13;32.97;;;18.43;;
10201;SDS011;5143;42.584;23.164;2022-11-15T06:59:39;33.60;;;19.13;;
10201;SDS011;5143;42.584;23.164;2022-11-15T07:02:06;37.87;;;19.60;;
10201;SDS011;5143;42.584;23.164;2022-11-15T07:04:33;31.10;;;18.30;;
10201;SDS011;5143;42.584;23.164;2022-11-15T07:07:01;31.07;;;18.67;;
10201;SDS011;5143;42.584;23.164;2022-11-15T07:09:27;36.10;;;22.33;;
10201;SDS011;5143;42.584;23.164;2022-11-15T07:11:54;44.17;;;22.97;;
10201;SDS011;5143;42.584;23.164;2022-11-15T07:14:22;44.63;;;25.77;;
10201;SDS011;5143;42.584;23.164;2022-11-15T07:16:48;31.93;;;20.07;;
10201;SDS011;5143;42.584;23.164;2022-11-15T07:19:15;37.90;;;21.60;;
10201;SDS011;5143;42.584;23.164;2022-11-15T07:21:41;29.73;;;19.63;;
10201;SDS011;5143;42.584;23.164;2022-11-15T07:24:08;34.20;;;19.77;;
10201;SDS011;5143;42.584;23.164;2022-11-15T07:26:34;31.23;;;15.27;;
10201;SDS011;5143;42.584;23.164;2022-11-15T07:29:01;26.10;;;15.03;;
10201;SDS011;5143;42.584;23.164;2022-11-15T07:31:29;25.57;;;14.33;;
10201;SDS011;5143;42.584;23.164;2022-11-15T07:33:56;30.53;;;15.40;;
10201;SDS011;5143;42.584;23.164;2022-11-15T07:36:22;33.03;;;15.27;;
10201;SDS011;5143;42.584;23.164;2022-11-15T07:38:49;29.50;;;16.47;;
10201;SDS011;5143;42.584;23.164;2022-11-15T07:41:15;26.07;;;15.87;;
10201;SDS011;5143;42.584;23.164;2022-11-15T07:43:42;32.73;;;15.53;;
10201;SDS011;5143;42.584;23.164;2022-11-15T07:46:08;26.33;;;15.73;;
10201;SDS011;5143;42.584;23.164;2022-11-15T07:48:37;23.90;;;13.43;;
10201;SDS011;5143;42.584;23.164;2022-11-15T07:51:05;26.80;;;14.13;;
10201;SDS011;5143;42.584;23.164;2022-11-15T07:53:31;29.07;;;13.20;;
10201;SDS011;5143;42.584;23.164;2022-11-15T07:55:58;20.97;;;12.07;;
10201;SDS011;5143;42.584;23.164;2022-11-15T07:58:25;25.87;;;13.73;;
10201;SDS011;5143;42.584;23.164;2022-11-15T08:00:51;27.87;;;13.57;;
10201;SDS011;5143;42.584;23.164;2022-11-15T08:03:18;27.27;;;14.90;;
10201;SDS011;5143;42.584;23.164;2022-11-15T08:05:49;27.03;;;15.40;;
10201;SDS011;5143;42.584;23.164;2022-11-15T08:08:16;28.87;;;15.67;;
10201;SDS011;5143;42.584;23.164;2022-11-15T08:10:43;30.30;;;15.20;;
10201;SDS011;5143;42.584;23.164;2022-11-15T08:13:10;32.97;;;16.00;;
10201;SDS011;5143;42.584;23.164;2022-11-15T08:15:37;28.23;;;15.90;;
10201;SDS011;5143;42.584;23.164;2022-11-15T08:18:04;31.70;;;17.07;;
10201;SDS011;5143;42.584;23.164;2022-11-15T08:20:31;35.53;;;16.80;;
10201;SDS011;5143;42.584;23.164;2022-11-15T08:23:01;28.80;;;15.53;;
10201;SDS011;5143;42.584;23.164;2022-11-15T08:25:28;28.07;;;17.17;;
10201;SDS011;5143;42.584;23.164;2022-11-15T08:27:56;29.00;;;18.87;;
10201;SDS011;5143;42.584;23.164;2022-11-15T08:30:23;32.00;;;15.83;;
10201;SDS011;5143;42.584;23.164;2022-11-15T08:32:50;33.70;;;16.10;;
10201;SDS011;5143;42.584;23.164;2022-11-15T08:35:17;34.37;;;15.40;;
10201;SDS011;5143;42.584;23.164;2022-11-15T08:37:44;28.77;;;14.57;;
10201;SDS011;5143;42.584;23.164;2022-11-15T08:40:12;26.03;;;14.27;;
10201;SDS011;5143;42.584;23.164;2022-11-15T08:42:39;30.87;;;13.90;;
10201;SDS011;5143;42.584;23.164;2022-11-15T08:45:06;23.67;;;14.33;;
10201;SDS011;5143;42.584;23.164;2022-11-15T08:47:33;34.43;;;13.47;;
10201;SDS011;5143;42.584;23.164;2022-11-15T08:50:00;26.70;;;12.90;;
10201;SDS011;5143;42.584;23.164;2022-11-15T08:52:26;27.40;;;11.87;;
10201;SDS011;5143;42.584;23.164;2022-11-15T08:54:53;26.53;;;13.43;;
10201;SDS011;5143;42.584;23.164;2022-11-15T08:57:21;33.17;;;12.57;;
10201;SDS011;5143;42.584;23.164;2022-11-15T08:59:47;21.87;;;11.97;;
10201;SDS011;5143;42.584;23.164;2022-11-15T09:02:14;29.80;;;12.87;;
10201;SDS011;5143;42.584;23.164;2022-11-15T09:04:41;28.03;;;12.33;;
10201;SDS011;5143;42.584;23.164;2022-11-15T09:07:07;28.20;;;13.20;;
10201;SDS011;5143;42.584;23.164;2022-11-15T09:09:34;60.20;;;14.97;;
10201;SDS011;5143;42.584;23.164;2022-11-15T09:12:01;34.97;;;14.70;;
10201;SDS011;5143;42.584;23.164;2022-11-15T09:14:29;67.20;;;15.63;;
10201;SDS011;5143;42.584;23.164;2022-11-15T09:16:55;85.03;;;17.73;;
10201;SDS011;5143;42.584;23.164;2022-11-15T09:19:22;75.27;;;16.70;;
10201;SDS011;5143;42.584;23.164;2022-11-15T09:21:48;30.87;;;17.37;;
10201;SDS011;5143;42.584;23.164;2022-11-15T09:24:14;39.00;;;17.33;;
10201;SDS011;5143;42.584;23.164;2022-11-15T09:26:42;39.63;;;17.83;;
10201;SDS011;5143;42.584;23.164;2022-11-15T09:29:09;39.07;;;17.53;;
10201;SDS011;5143;42.584;23.164;2022-11-15T09:31:37;40.33;;;17.17;;
10201;SDS011;5143;42.584;23.164;2022-11-15T09:34:03;60.00;;;20.13;;
10201;SDS011;5143;42.584;23.164;2022-11-15T09:36:30;72.43;;;20.00;;
10201;SDS011;5143;42.584;23.164;2022-11-15T09:38:57;40.03;;;15.77;;
10201;SDS011;5143;42.584;23.164;2022-11-15T09:41:34;34.90;;;17.53;;
10201;SDS011;5143;42.584;23.164;2022-11-15T09:44:10;39.00;;;17.50;;
10201;SDS011;5143;42.584;23.164;2022-11-15T09:46:42;41.70;;;18.50;;
10201;SDS011;5143;42.584;23.164;2022-11-15T09:49:13;36.13;;;16.33;;
10201;SDS011;5143;42.584;23.164;2022-11-15T09:51:41;32.20;;;15.57;;
10201;SDS011;5143;42.584;23.164;2022-11-15T09:54:13;39.90;;;14.93;;
10201;SDS011;5143;42.584;23.164;2022-11-15T09:56:43;33.23;;;16.23;;
10201;SDS011;5143;42.584;23.164;2022-11-15T09:59:17;40.80;;;16.60;;
10201;SDS011;5143;42.584;23.164;2022-11-15T10:01:49;27.80;;;14.03;;
10201;SDS011;5143;42.584;23.164;2022-11-15T10:04:20;35.27;;;14.67;;
10201;SDS011;5143;42.584;23.164;2022-11-15T10:06:49;42.07;;;13.37;;
10201;SDS011;5143;42.584;23.164;2022-11-15T10:09:19;37.17;;;13.13;;
10201;SDS011;5143;42.584;23.164;2022-11-15T10:11:48;38.13;;;11.53;;
10201;SDS011;5143;42.584;23.164;2022-11-15T10:14:16;30.83;;;12.53;;
10201;SDS011;5143;42.584;23.164;2022-11-15T10:16:57;31.23;;;12.73;;
10201;SDS011;5143;42.584;23.164;2022-11-15T10:19:29;22.03;;;9.90;;
10201;SDS011;5143;42.584;23.164;2022-11-15T10:22:05;23.73;;;10.13;;
10201;SDS011;5143;42.584;23.164;2022-11-15T10:24:37;29.77;;;11.17;;
10201;SDS011;5143;42.584;23.164;2022-11-15T10:27:07;24.73;;;10.80;;
10201;SDS011;5143;42.584;23.164;2022-11-15T10:29:35;36.30;;;10.93;;
10201;SDS011;5143;42.584;23.164;2022-11-15T10:32:03;27.07;;;10.40;;
10201;SDS011;5143;42.584;23.164;2022-11-15T10:34:35;26.13;;;9.10;;
10201;SDS011;5143;42.584;23.164;2022-11-15T10:37:01;23.07;;;8.93;;
10201;SDS011;5143;42.584;23.164;2022-11-15T10:39:28;19.10;;;8.83;;
10201;SDS011;5143;42.584;23.164;2022-11-15T10:41:54;20.70;;;7.77;;
10201;SDS011;5143;42.584;23.164;2022-11-15T10:44:25;15.07;;;6.47;;
10201;SDS011;5143;42.584;23.164;2022-11-15T10:49:41;12.17;;;5.03;;
10201;SDS011;5143;42.584;23.164;2022-11-15T10:52:18;20.37;;;5.37;;
10201;SDS011;5143;42.584;23.164;2022-11-15T10:54:47;5.40;;;4.43;;
10201;SDS011;5143;42.584;23.164;2022-11-15T10:57:15;10.53;;;4.70;;
10201;SDS011;5143;42.584;23.164;2022-11-15T10:59:43;17.03;;;4.80;;
10201;SDS011;5143;42.584;23.164;2022-11-15T11:02:26;6.67;;;5.00;;
10201;SDS011;5143;42.584;23.164;2022-11-15T11:04:55;13.43;;;5.00;;
10201;SDS011;5143;42.584;23.164;2022-11-15T11:07:22;9.77;;;5.07;;
10201;SDS011;5143;42.584;23.164;2022-11-15T11:09:56;8.80;;;4.77;;
10201;SDS011;5143;42.584;23.164;2022-11-15T11:12:26;11.67;;;4.90;;
10201;SDS011;5143;42.584;23.164;2022-11-15T11:14:53;10.20;;;5.27;;
10201;SDS011;5143;42.584;23.164;2022-11-15T11:17:22;8.53;;;4.60;;
10201;SDS011;5143;42.584;23.164;2022-11-15T11:19:58;10.17;;;5.30;;
10201;SDS011;5143;42.584;23.164;2022-11-15T11:22:27;10.40;;;5.67;;
10201;SDS011;5143;42.584;23.164;2022-11-15T11:25:00;7.37;;;5.60;;
10201;SDS011;5143;42.584;23.164;2022-11-15T11:27:33;8.13;;;5.20;;
10201;SDS011;5143;42.584;23.164;2022-11-15T11:30:03;10.67;;;4.90;;
10201;SDS011;5143;42.584;23.164;2022-11-15T11:35:22;8.80;;;4.97;;
10201;SDS011;5143;42.584;23.164;2022-11-15T11:37:52;14.13;;;5.67;;
10201;SDS011;5143;42.584;23.164;2022-11-15T11:40:26;9.20;;;5.50;;
10201;SDS011;5143;42.584;23.164;2022-11-15T11:42:55;12.10;;;5.60;;
10201;SDS011;5143;42.584;23.164;2022-11-15T11:48:09;13.93;;;6.13;;
10201;SDS011;5143;42.584;23.164;2022-11-15T11:50:39;12.20;;;6.93;;
10201;SDS011;5143;42.584;23.164;2022-11-15T11:53:09;8.77;;;6.43;;
10201;SDS011;5143;42.584;23.164;2022-11-15T11:55:37;17.17;;;5.97;;
10201;SDS011;5143;42.584;23.164;2022-11-15T11:58:09;14.13;;;5.70;;
10201;SDS011;5143;42.584;23.164;2022-11-15T12:00:39;6.33;;;5.17;;
10201;SDS011;5143;42.584;23.164;2022-11-15T12:03:09;6.07;;;5.10;;
10201;SDS011;5143;42.584;23.164;2022-11-15T12:05:40;8.97;;;4.93;;
10201;SDS011;5143;42.584;23.164;2022-11-15T12:08:18;7.50;;;4.83;;
10201;SDS011;5143;42.584;23.164;2022-11-15T12:10:48;12.00;;;6.00;;
10201;SDS011;5143;42.584;23.164;2022-11-15T12:13:19;7.93;;;4.47;;
10201;SDS011;5143;42.584;23.164;2022-11-15T12:15:48;7.80;;;4.50;;
10201;SDS011;5143;42.584;23.164;2022-11-15T12:18:17;7.33;;;4.87;;
10201;SDS011;5143;42.584;23.164;2022-11-15T12:20:49;8.60;;;4.77;;
10201;SDS011;5143;42.584;23.164;2022-11-15T12:23:19;6.50;;;4.50;;
10201;SDS011;5143;42.584;23.164;2022-11-15T12:25:47;12.60;;;4.43;;
10201;SDS011;5143;42.584;23.164;2022-11-15T12:28:17;12.30;;;5.60;;
10201;SDS011;5143;42.584;23.164;2022-11-15T12:30:46;9.77;;;5.20;;
10201;SDS011;5143;42.584;23.164;2022-11-15T12:33:34;9.43;;;4.83;;
10201;SDS011;5143;42.584;23.164;2022-11-15T12:36:04;6.97;;;5.10;;
10201;SDS011;5143;42.584;23.164;2022-11-15T12:41:16;13.00;;;4.50;;
10201;SDS011;5143;42.584;23.164;2022-11-15T12:43:44;11.23;;;5.47;;
10201;SDS011;5143;42.584;23.164;2022-11-15T12:46:12;9.07;;;4.93;;
10201;SDS011;5143;42.584;23.164;2022-11-15T12:48:46;8.07;;;4.30;;
10201;SDS011;5143;42.584;23.164;2022-11-15T12:51:14;8.10;;;3.80;;
10201;SDS011;5143;42.584;23.164;2022-11-15T12:53:41;7.27;;;4.30;;
10201;SDS011;5143;42.584;23.164;2022-11-15T12:56:09;7.93;;;5.40;;
10201;SDS011;5143;42.584;23.164;2022-11-15T12:58:40;10.27;;;4.73;;
10201;SDS011;5143;42.584;23.164;2022-11-15T13:01:07;13.73;;;4.83;;
10201;SDS011;5143;42.584;23.164;2022-11-15T13:03:34;7.83;;;5.00;;
10201;SDS011;5143;42.584;23.164;2022-11-15T13:06:03;6.13;;;4.20;;
10201;SDS011;5143;42.584;23.164;2022-11-15T13:08:39;7.63;;;4.60;;
10201;SDS011;5143;42.584;23.164;2022-11-15T13:13:51;6.10;;;4.20;;
10201;SDS011;5143;42.584;23.164;2022-11-15T13:16:18;15.43;;;4.67;;
10201;SDS011;5143;42.584;23.164;2022-11-15T13:18:52;9.00;;;4.43;;
10201;SDS011;5143;42.584;23.164;2022-11-15T13:21:20;8.33;;;5.30;;
10201;SDS011;5143;42.584;23.164;2022-11-15T13:24:11;10.73;;;5.67;;
10201;SDS011;5143;42.584;23.164;2022-11-15T13:26:38;10.43;;;5.33;;
10201;SDS011;5143;42.584;23.164;2022-11-15T13:29:12;11.83;;;5.00;;
10201;SDS011;5143;42.584;23.164;2022-11-15T13:31:41;7.47;;;4.47;;
10201;SDS011;5143;42.584;23.164;2022-11-15T13:37:00;22.00;;;5.97;;
10201;SDS011;5143;42.584;23.164;2022-11-15T13:39:29;8.97;;;5.70;;
10201;SDS011;5143;42.584;23.164;2022-11-15T13:41:56;8.90;;;4.87;;
10201;SDS011;5143;42.584;23.164;2022-11-15T13:44:24;13.07;;;5.00;;
10201;SDS011;5143;42.584;23.164;2022-11-15T13:47:00;8.23;;;4.73;;
10201;SDS011;5143;42.584;23.164;2022-11-15T13:49:28;14.80;;;8.13;;
10201;SDS011;5143;42.584;23.164;2022-11-15T13:51:55;11.27;;;5.50;;
10201;SDS011;5143;42.584;23.164;2022-11-15T13:54:23;10.70;;;4.60;;
10201;SDS011;5143;42.584;23.164;2022-11-15T13:56:53;10.20;;;4.60;;
10201;SDS011;5143;42.584;23.164;2022-11-15T13:59:23;9.20;;;4.43;;
10201;SDS011;5143;42.584;23.164;2022-11-15T14:01:50;14.97;;;4.60;;
10201;SDS011;5143;42.584;23.164;2022-11-15T14:04:18;29.87;;;15.23;;
10201;SDS011;5143;42.584;23.164;2022-11-15T14:06:45;21.73;;;16.50;;
10201;SDS011;5143;42.584;23.164;2022-11-15T14:09:29;156.40;;;108.70;;
10201;SDS011;5143;42.584;23.164;2022-11-15T14:11:59;83.47;;;57.53;;
10201;SDS011;5143;42.584;23.164;2022-11-15T14:14:26;76.67;;;52.60;;
10201;SDS011;5143;42.584;23.164;2022-11-15T14:16:54;66.80;;;47.47;;
10201;SDS011;5143;42.584;23.164;2022-11-15T14:19:34;54.70;;;43.93;;
10201;SDS011;5143;42.584;23.164;2022-11-15T14:22:11;56.60;;;43.07;;
10201;SDS011;5143;42.584;23.164;2022-11-15T14:24:38;28.30;;;21.27;;
10201;SDS011;5143;42.584;23.164;2022-11-15T14:27:19;11.43;;;8.67;;
10201;SDS011;5143;42.584;23.164;2022-11-15T14:29:46;13.97;;;10.07;;
10201;SDS011;5143;42.584;23.164;2022-11-15T14:32:14;33.80;;;20.40;;
10201;SDS011;5143;42.584;23.164;2022-11-15T14:34:41;26.83;;;18.50;;
10201;SDS011;5143;42.584;23.164;2022-11-15T14:37:10;34.27;;;21.47;;
10201;SDS011;5143;42.584;23.164;2022-11-15T14:39:42;47.93;;;29.17;;
10201;SDS011;5143;42.584;23.164;2022-11-15T14:42:09;34.90;;;23.27;;
10201;SDS011;5143;42.584;23.164;2022-11-15T14:44:37;17.83;;;12.50;;
10201;SDS011;5143;42.584;23.164;2022-11-15T14:47:04;13.63;;;10.40;;
10201;SDS011;5143;42.584;23.164;2022-11-15T14:49:30;8.83;;;6.47;;
10201;SDS011;5143;42.584;23.164;2022-11-15T14:51:57;8.80;;;6.97;;
10201;SDS011;5143;42.584;23.164;2022-11-15T14:54:23;10.03;;;7.40;;
10201;SDS011;5143;42.584;23.164;2022-11-15T14:56:50;12.30;;;7.77;;
10201;SDS011;5143;42.584;23.164;2022-11-15T14:59:16;13.67;;;8.47;;